Terminal Aerodrome Forecast
Issued by NWS

Home | Current Version | Previous Version | Text Only | Print | Product List | Glossary On
Versions: 1 2 3 4 5 6 7 8 9 10 11 12 13 14 15 16 17 18 19 20 21 22 23 24 25 26 27 28 29 30 31 32 33 34 35 36 37
360
FTUS43 KPAH 181034 AAB
TAFOWB
TAF AMD
KOWB 181034Z 1811/1906 19006KT 1SM -DZ BR OVC003
      TEMPO 1811/1815 3SM -DZ BR
     FM181800 22009KT 4SM BR SCT005 OVC008
     FM182100 22006KT P6SM OVC015
     FM190100 21005KT P6SM SCT030=

USA.gov is the U.S. government's official web portal to all federal, state and local government web resources and services.